createdAt,value
2019-04-20T00:01:50.524Z,12.80
2019-04-20T00:04:24.731Z,12.80
2019-04-20T00:06:53.086Z,12.70
2019-04-20T00:09:25.727Z,12.70
2019-04-20T00:12:01.506Z,12.60
2019-04-20T00:14:26.272Z,12.60
2019-04-20T00:16:52.912Z,12.50
2019-04-20T00:19:33.658Z,12.50
2019-04-20T00:22:05.857Z,12.40
2019-04-20T00:24:51.596Z,12.30
2019-04-20T00:27:40.253Z,12.30
2019-04-20T00:30:04.375Z,12.30
2019-04-20T00:32:35.979Z,12.30
2019-04-20T00:34:50.365Z,12.20
2019-04-20T00:37:19.430Z,12.10
2019-04-20T00:39:48.865Z,12.00
2019-04-20T00:42:19.643Z,12.00
2019-04-20T00:44:56.411Z,12.00
2019-04-20T00:47:30.439Z,11.90
2019-04-20T00:50:04.051Z,11.90
2019-04-20T00:52:35.680Z,11.90
2019-04-20T00:54:51.496Z,11.80
2019-04-20T00:57:30.524Z,11.80
2019-04-20T01:00:11.067Z,11.80
2019-04-20T01:02:37.038Z,11.70
2019-04-20T01:05:12.809Z,11.70
2019-04-20T01:07:33.061Z,11.60
2019-04-20T01:10:09.253Z,11.60
2019-04-20T01:12:40.264Z,11.60
2019-04-20T01:15:12.371Z,11.60
2019-04-20T01:17:41.518Z,11.60
2019-04-20T01:20:10.393Z,11.50
2019-04-20T01:22:44.562Z,11.50
2019-04-20T01:25:17.250Z,11.50
2019-04-20T01:28:02.148Z,11.40
2019-04-20T01:30:20.764Z,11.50
2019-04-20T01:32:57.534Z,11.40
2019-04-20T01:35:30.447Z,11.40
2019-04-20T01:38:02.621Z,11.40
2019-04-20T01:40:14.742Z,11.30
2019-04-20T01:42:44.585Z,11.30
2019-04-20T01:45:19.888Z,11.20
2019-04-20T01:47:50.270Z,11.20
2019-04-20T01:50:21.009Z,11.20
2019-04-20T01:52:56.705Z,11.20
2019-04-20T01:55:39.085Z,11.20
2019-04-20T01:58:19.444Z,11.20
2019-04-20T02:00:45.985Z,11.10
2019-04-20T02:03:38.366Z,11.10
2019-04-20T02:06:12.697Z,11.00
2019-04-20T02:08:46.042Z,11.00
2019-04-20T02:11:23.075Z,11.00
2019-04-20T02:13:51.615Z,11.00
2019-04-20T02:16:27.281Z,11.00
2019-04-20T02:19:09.103Z,11.00
2019-04-20T02:21:36.384Z,10.90
2019-04-20T02:23:58.887Z,10.90
2019-04-20T02:26:23.956Z,10.90
2019-04-20T02:29:17.593Z,10.80
2019-04-20T02:32:05.034Z,10.80
2019-04-20T02:34:40.175Z,10.80
2019-04-20T02:37:21.296Z,10.80
2019-04-20T02:39:46.369Z,10.70
2019-04-20T02:47:14.031Z,10.70
2019-04-20T02:49:42.058Z,10.70
2019-04-20T02:52:12.401Z,10.70
2019-04-20T02:54:47.049Z,10.60
2019-04-20T02:57:33.344Z,10.60
2019-04-20T03:01:59.410Z,10.50
2019-04-20T03:04:25.680Z,10.40
2019-04-20T03:07:02.611Z,10.40
2019-04-20T03:09:38.539Z,10.30
2019-04-20T03:12:10.610Z,10.30
2019-04-20T03:14:33.626Z,10.30
2019-04-20T03:17:10.409Z,10.30
2019-04-20T03:19:32.826Z,10.20
2019-04-20T03:22:18.876Z,10.20
2019-04-20T03:24:46.878Z,10.20
2019-04-20T03:27:07.563Z,10.20
2019-04-20T03:29:52.557Z,10.20
2019-04-20T03:35:05.311Z,10.10
2019-04-20T03:37:34.569Z,10.10
2019-04-20T03:39:55.563Z,10.00
2019-04-20T03:42:09.331Z,10.00
2019-04-20T03:44:39.420Z,10.00
2019-04-20T03:47:12.342Z,9.90
2019-04-20T03:52:49.350Z,9.80
2019-04-20T03:55:26.242Z,9.80
2019-04-20T03:58:04.453Z,9.80
2019-04-20T04:00:35.511Z,9.80
2019-04-20T04:03:20.246Z,9.70
2019-04-20T04:05:45.860Z,9.70
2019-04-20T04:08:10.568Z,9.80
2019-04-20T04:10:47.879Z,9.80
2019-04-20T04:13:21.000Z,9.80
2019-04-20T04:15:57.553Z,9.80
2019-04-20T04:18:29.738Z,9.80
2019-04-20T04:21:03.139Z,9.80
2019-04-20T04:23:47.094Z,9.80
2019-04-20T04:26:17.145Z,9.70
2019-04-20T04:28:44.864Z,9.70
2019-04-20T04:31:17.640Z,9.70
2019-04-20T04:33:55.955Z,9.70
2019-04-20T04:36:15.316Z,9.60
2019-04-20T04:38:57.094Z,9.60
2019-04-20T04:41:25.592Z,9.60
2019-04-20T04:43:52.120Z,9.60
2019-04-20T04:46:02.065Z,9.60
2019-04-20T04:48:35.826Z,9.50
2019-04-20T04:51:11.331Z,9.50
2019-04-20T04:53:44.357Z,9.50
2019-04-20T04:56:07.384Z,9.50
2019-04-20T04:58:34.031Z,9.50
2019-04-20T05:01:11.738Z,9.50
2019-04-20T05:03:56.520Z,9.50
2019-04-20T05:06:31.724Z,9.60
2019-04-20T05:08:55.118Z,9.60
2019-04-20T05:11:23.838Z,9.60
2019-04-20T05:14:02.198Z,9.60
2019-04-20T05:16:48.121Z,9.60
2019-04-20T05:19:19.256Z,9.70
2019-04-20T05:22:08.126Z,9.70
2019-04-20T05:24:34.897Z,9.80
2019-04-20T05:27:24.681Z,9.80
2019-04-20T05:29:41.360Z,9.80
2019-04-20T05:32:19.915Z,9.90
2019-04-20T05:35:10.934Z,9.90
2019-04-20T05:37:45.776Z,10.00
2019-04-20T05:40:13.275Z,10.10
2019-04-20T05:42:41.111Z,10.10
2019-04-20T05:45:08.624Z,10.10
2019-04-20T05:47:38.726Z,10.20
2019-04-20T05:50:01.022Z,10.30
2019-04-20T05:55:20.767Z,10.50
2019-04-20T05:58:02.074Z,10.60
2019-04-20T06:00:34.571Z,10.70
2019-04-20T06:03:02.331Z,10.70
2019-04-20T06:05:36.432Z,10.80
2019-04-20T06:07:59.173Z,10.90
2019-04-20T06:10:31.963Z,11.00
2019-04-20T06:13:00.258Z,11.10
2019-04-20T06:15:42.069Z,11.10
2019-04-20T06:18:17.802Z,11.20
2019-04-20T06:21:00.823Z,11.30
2019-04-20T06:23:33.825Z,11.30
2019-04-20T06:26:12.823Z,11.40
2019-04-20T06:28:28.033Z,11.50
2019-04-20T06:32:33.846Z,11.60
2019-04-20T06:34:25.897Z,11.70
2019-04-20T06:36:57.279Z,11.90
2019-04-20T06:39:20.390Z,12.00
2019-04-20T06:42:07.186Z,12.00
2019-04-20T06:44:26.722Z,12.10
2019-04-20T06:46:53.234Z,12.10
2019-04-20T06:49:27.485Z,12.20
2019-04-20T06:51:55.013Z,12.30
2019-04-20T06:54:36.734Z,12.40
2019-04-20T06:57:12.442Z,12.40
2019-04-20T07:00:14.044Z,12.50
2019-04-20T07:02:17.219Z,12.60
2019-04-20T07:04:55.468Z,12.70
2019-04-20T07:07:14.385Z,12.70
2019-04-20T07:09:58.328Z,12.70
2019-04-20T07:12:12.317Z,12.80
2019-04-20T07:14:37.975Z,12.80
2019-04-20T07:20:08.354Z,12.90
2019-04-20T07:22:37.564Z,12.90
2019-04-20T07:25:11.662Z,13.10
2019-04-20T07:27:43.173Z,13.10
2019-04-20T07:30:12.392Z,13.20
2019-04-20T07:33:02.435Z,13.30
2019-04-20T07:35:19.631Z,13.40
2019-04-20T07:38:10.324Z,13.30
2019-04-20T07:40:20.387Z,13.40
2019-04-20T07:42:56.516Z,13.50
2019-04-20T07:45:30.781Z,13.60
2019-04-20T07:48:09.312Z,13.80
2019-04-20T07:50:24.080Z,13.90
2019-04-20T07:52:51.638Z,14.00
2019-04-20T07:55:40.865Z,14.20
2019-04-20T07:57:53.818Z,14.30
2019-04-20T08:00:46.676Z,14.50
2019-04-20T08:03:28.118Z,14.60
2019-04-20T08:05:52.703Z,14.80
2019-04-20T08:08:30.742Z,14.80
2019-04-20T08:11:02.658Z,14.90
2019-04-20T08:13:39.165Z,15.00
2019-04-20T08:18:49.964Z,15.40
2019-04-20T08:21:06.449Z,15.60
2019-04-20T08:23:33.714Z,15.80
2019-04-20T08:26:09.035Z,16.00
2019-04-20T08:28:36.289Z,16.10
2019-04-20T08:31:39.017Z,16.20
2019-04-20T08:34:18.566Z,16.40
2019-04-20T08:36:47.797Z,16.50
2019-04-20T08:39:29.976Z,16.60
2019-04-20T08:41:53.488Z,16.70
2019-04-20T08:44:42.897Z,17.00
2019-04-20T08:47:01.265Z,17.20
2019-04-20T08:49:26.311Z,17.50
2019-04-20T08:51:58.860Z,17.70
2019-04-20T08:54:16.982Z,18.00
2019-04-20T08:56:39.001Z,18.20
2019-04-20T08:59:01.847Z,18.40
2019-04-20T09:01:34.155Z,18.60
2019-04-20T09:04:24.120Z,18.70
2019-04-20T09:06:49.078Z,18.80
2019-04-20T09:09:44.585Z,18.90
2019-04-20T09:12:06.439Z,19.10
2019-04-20T09:14:20.880Z,19.30
2019-04-20T09:16:59.168Z,19.40
2019-04-20T09:19:29.944Z,19.70
2019-04-20T09:22:06.389Z,19.90
2019-04-20T09:24:44.640Z,20.00
2019-04-20T09:27:08.886Z,20.20
2019-04-20T09:29:37.172Z,20.20
2019-04-20T09:32:23.208Z,20.20
2019-04-20T09:35:00.028Z,20.20
2019-04-20T09:37:41.267Z,20.40
2019-04-20T09:40:21.191Z,20.60
2019-04-20T09:42:38.826Z,20.70
2019-04-20T09:45:19.840Z,20.70
2019-04-20T09:47:44.978Z,20.70
2019-04-20T09:50:27.874Z,20.80
2019-04-20T09:52:59.270Z,20.90
2019-04-20T09:55:24.677Z,20.80
2019-04-20T09:57:59.057Z,20.90
2019-04-20T10:00:29.099Z,21.00
2019-04-20T10:02:44.780Z,21.10
2019-04-20T10:05:13.672Z,21.20
2019-04-20T10:07:43.864Z,21.00
2019-04-20T10:10:21.418Z,20.90
2019-04-20T10:12:43.926Z,20.90
2019-04-20T10:15:19.016Z,20.90
2019-04-20T10:17:44.124Z,20.80
2019-04-20T10:20:20.859Z,20.80
2019-04-20T10:22:44.714Z,20.90
2019-04-20T10:25:14.972Z,21.00
2019-04-20T10:27:45.349Z,21.00
2019-04-20T10:30:14.887Z,21.10
2019-04-20T10:32:47.181Z,21.10
2019-04-20T10:35:16.868Z,21.20
2019-04-20T10:37:53.621Z,21.30
2019-04-20T10:40:37.764Z,21.30
2019-04-20T10:42:53.193Z,21.30
2019-04-20T10:45:22.959Z,21.40
2019-04-20T10:47:52.817Z,21.60
2019-04-20T10:50:25.073Z,21.70
2019-04-20T10:52:54.171Z,21.60
2019-04-20T10:55:27.150Z,21.60
2019-04-20T10:57:57.652Z,21.70
2019-04-20T11:00:42.256Z,21.90
2019-04-20T11:03:13.438Z,22.00
2019-04-20T11:05:42.852Z,22.10
2019-04-20T11:08:12.808Z,22.20
2019-04-20T11:10:56.826Z,22.30
2019-04-20T11:13:13.371Z,22.40
2019-04-20T11:15:42.323Z,22.50
2019-04-20T11:18:11.390Z,22.50
2019-04-20T11:20:41.498Z,22.50
2019-04-20T11:23:20.363Z,22.50
2019-04-20T11:25:50.505Z,22.60
2019-04-20T11:28:40.027Z,22.70
2019-04-20T11:31:21.993Z,22.80
2019-04-20T11:33:54.199Z,22.90
2019-04-20T11:36:23.377Z,23.10
2019-04-20T11:38:54.465Z,23.10
2019-04-20T11:42:09.846Z,23.10
2019-04-20T11:44:39.466Z,23.10
2019-04-20T11:47:08.576Z,23.10
2019-04-20T11:49:37.633Z,23.20
2019-04-20T11:52:07.761Z,23.20
2019-04-20T11:54:37.009Z,23.30
2019-04-20T11:57:07.076Z,23.30
2019-04-20T11:59:37.133Z,23.20
2019-04-20T12:02:10.819Z,23.20
2019-04-20T12:04:49.960Z,23.20
2019-04-20T12:07:15.014Z,23.20
2019-04-20T12:09:47.216Z,23.30
2019-04-20T12:12:27.539Z,23.40
2019-04-20T12:14:48.390Z,23.60
2019-04-20T12:17:17.710Z,23.80
2019-04-20T12:19:52.970Z,23.90
2019-04-20T12:22:24.059Z,23.90
2019-04-20T12:24:54.097Z,24.00
2019-04-20T12:27:25.046Z,24.10
2019-04-20T12:29:54.099Z,24.10
2019-04-20T12:32:28.245Z,24.10
2019-04-20T12:34:54.519Z,24.10
2019-04-20T12:37:24.984Z,24.20
2019-04-20T12:39:55.333Z,24.20
2019-04-20T12:42:25.311Z,24.30
2019-04-20T12:44:55.643Z,24.30
2019-04-20T12:47:25.916Z,24.40
2019-04-20T12:49:56.301Z,24.40
2019-04-20T12:52:26.275Z,24.50
2019-04-20T12:54:58.317Z,24.70
2019-04-20T12:57:26.827Z,24.90
2019-04-20T12:59:57.185Z,25.00
2019-04-20T13:02:27.263Z,25.00
2019-04-20T13:04:57.454Z,25.10
2019-04-20T13:07:27.226Z,25.20
2019-04-20T13:09:56.909Z,25.30
2019-04-20T13:12:30.295Z,25.40
2019-04-20T13:15:30.281Z,25.50
2019-04-20T13:18:01.217Z,25.50
2019-04-20T13:20:30.464Z,25.50
2019-04-20T13:23:00.933Z,25.50
2019-04-20T13:25:30.838Z,25.60
2019-04-20T13:28:01.052Z,25.80
2019-04-20T13:30:30.282Z,25.80
2019-04-20T13:32:59.465Z,25.80
2019-04-20T13:35:28.381Z,25.80
2019-04-20T13:37:58.193Z,25.80
2019-04-20T13:40:27.990Z,25.80
2019-04-20T13:42:57.144Z,25.80
2019-04-20T13:45:26.689Z,25.80
2019-04-20T13:47:57.080Z,25.80
2019-04-20T13:50:26.360Z,25.90
2019-04-20T13:52:56.506Z,25.80
2019-04-20T13:55:27.285Z,25.80
2019-04-20T13:57:58.009Z,25.80
2019-04-20T14:00:50.954Z,25.80
2019-04-20T14:03:22.776Z,25.80
2019-04-20T14:05:52.968Z,25.80
2019-04-20T14:08:25.299Z,25.80
2019-04-20T14:10:55.650Z,25.80
2019-04-20T14:13:29.303Z,25.80
2019-04-20T14:15:55.503Z,25.80
2019-04-20T14:18:25.049Z,25.70
2019-04-20T14:20:54.316Z,25.70
2019-04-20T14:23:23.334Z,25.70
2019-04-20T14:25:52.358Z,25.60
2019-04-20T14:28:21.353Z,25.60
2019-04-20T14:30:50.342Z,25.60
2019-04-20T14:33:19.349Z,25.60
2019-04-20T14:35:48.477Z,25.50
2019-04-20T14:38:17.676Z,25.30
2019-04-20T14:40:48.290Z,25.20
2019-04-20T14:43:17.500Z,25.10
2019-04-20T14:45:47.147Z,25.00
2019-04-20T14:48:16.386Z,24.80
2019-04-20T14:50:45.764Z,24.70
2019-04-20T14:53:15.717Z,24.70
2019-04-20T14:55:44.893Z,24.50
2019-04-20T14:58:33.335Z,24.50
2019-04-20T15:01:08.864Z,24.40
2019-04-20T15:03:40.412Z,24.20
2019-04-20T15:06:11.811Z,24.10
2019-04-20T15:08:54.729Z,24.00
2019-04-20T15:11:28.283Z,23.90
2019-04-20T15:16:54.133Z,23.90
2019-04-20T15:19:47.622Z,23.80
2019-04-20T15:22:35.943Z,23.80
2019-04-20T15:25:07.628Z,23.80
2019-04-20T15:27:37.369Z,23.70
2019-04-20T15:30:08.624Z,23.60
2019-04-20T15:32:39.040Z,23.60
2019-04-20T15:35:09.026Z,23.60
2019-04-20T15:37:39.384Z,23.50
2019-04-20T15:40:08.955Z,23.40
2019-04-20T15:42:49.602Z,23.40
2019-04-20T15:45:09.404Z,23.30
2019-04-20T15:47:40.285Z,23.30
2019-04-20T15:50:09.737Z,23.20
2019-04-20T15:52:43.222Z,23.20
2019-04-20T15:55:19.659Z,23.20
2019-04-20T15:57:40.696Z,23.10
2019-04-20T16:00:10.904Z,23.10
2019-04-20T16:02:43.221Z,23.10
2019-04-20T16:05:14.447Z,23.00
2019-04-20T16:07:48.557Z,23.00
2019-04-20T16:10:14.994Z,22.90
2019-04-20T16:12:44.910Z,22.90
2019-04-20T16:15:14.146Z,22.90
2019-04-20T16:17:47.121Z,22.80
2019-04-20T16:20:19.725Z,22.80
2019-04-20T16:22:44.905Z,22.80
2019-04-20T16:25:15.461Z,22.80
2019-04-20T16:27:50.078Z,22.70
2019-04-20T16:30:18.155Z,22.70
2019-04-20T16:32:48.167Z,22.70
2019-04-20T16:35:18.250Z,22.60
2019-04-20T16:37:48.515Z,22.60
2019-04-20T16:40:17.814Z,22.50
2019-04-20T16:42:47.973Z,22.50
2019-04-20T16:45:17.237Z,22.50
2019-04-20T16:47:58.875Z,22.40
2019-04-20T16:50:22.707Z,22.40
2019-04-20T16:52:52.702Z,22.40
2019-04-20T16:55:22.930Z,22.30
2019-04-20T16:57:53.013Z,22.30
2019-04-20T17:00:23.216Z,22.30
2019-04-20T17:02:54.330Z,22.20
2019-04-20T17:05:25.112Z,22.20
2019-04-20T17:07:57.262Z,22.20
2019-04-20T17:10:26.602Z,22.20
2019-04-20T17:12:55.777Z,22.20
2019-04-20T17:15:25.563Z,22.10
2019-04-20T17:17:56.711Z,22.10
2019-04-20T17:20:27.030Z,22.10
2019-04-20T17:22:56.331Z,22.00
2019-04-20T17:25:26.156Z,22.00
2019-04-20T17:28:06.875Z,22.00
2019-04-20T17:30:47.851Z,21.90
2019-04-20T17:33:47.399Z,21.90
2019-04-20T17:36:14.462Z,21.90
2019-04-20T17:38:41.777Z,21.80
2019-04-20T17:41:29.100Z,21.80
2019-04-20T17:43:57.790Z,21.80
2019-04-20T17:46:17.554Z,21.70
2019-04-20T17:48:51.377Z,21.70
2019-04-20T17:51:37.169Z,21.70
2019-04-20T17:53:53.785Z,21.60
2019-04-20T17:56:18.214Z,21.60
2019-04-20T17:58:50.708Z,21.50
2019-04-20T18:01:55.775Z,21.50
2019-04-20T18:04:51.405Z,21.50
2019-04-20T18:06:57.919Z,21.40
2019-04-20T18:09:39.929Z,21.30
2019-04-20T18:11:52.590Z,21.30
2019-04-20T18:14:31.553Z,21.20
2019-04-20T18:17:10.446Z,21.10
2019-04-20T18:19:29.118Z,21.10
2019-04-20T18:21:58.015Z,21.00
2019-04-20T18:24:50.994Z,20.90
2019-04-20T18:27:14.168Z,20.90
2019-04-20T18:29:49.133Z,20.90
2019-04-20T18:32:19.759Z,20.80
2019-04-20T18:34:54.301Z,20.80
2019-04-20T18:37:23.383Z,20.80
2019-04-20T18:39:57.393Z,20.70
2019-04-20T18:42:29.156Z,20.60
2019-04-20T18:45:12.424Z,20.60
2019-04-20T18:47:45.286Z,20.60
2019-04-20T18:50:07.700Z,20.50
2019-04-20T18:52:27.415Z,20.40
2019-04-20T18:54:57.576Z,20.40
2019-04-20T18:57:30.720Z,20.30
2019-04-20T18:59:59.144Z,20.20
2019-04-20T19:02:33.580Z,20.20
2019-04-20T19:05:01.558Z,20.10
2019-04-20T19:07:34.870Z,20.10
2019-04-20T19:10:12.923Z,20.00
2019-04-20T19:12:41.481Z,20.00
2019-04-20T19:15:35.044Z,19.90
2019-04-20T19:17:52.304Z,19.90
2019-04-20T19:20:26.850Z,19.80
2019-04-20T19:22:55.793Z,19.70
2019-04-20T19:25:29.840Z,19.60
2019-04-20T19:27:57.552Z,19.50
2019-04-20T19:30:35.350Z,19.40
2019-04-20T19:33:14.588Z,19.40
2019-04-20T19:35:40.591Z,19.30
2019-04-20T19:38:10.514Z,19.10
2019-04-20T19:40:45.387Z,19.00
2019-04-20T19:43:15.628Z,18.90
2019-04-20T19:45:56.607Z,18.80
2019-04-20T19:48:23.039Z,18.80
2019-04-20T19:50:59.337Z,18.70
2019-04-20T19:53:45.541Z,18.60
2019-04-20T19:55:52.721Z,18.60
2019-04-20T19:58:45.630Z,18.60
2019-04-20T20:01:03.592Z,18.60
2019-04-20T20:03:35.447Z,18.60
2019-04-20T20:06:25.794Z,18.50
2019-04-20T20:08:55.798Z,18.50
2019-04-20T20:11:32.322Z,18.40
2019-04-20T20:13:59.183Z,18.30
2019-04-20T20:16:51.775Z,18.20
2019-04-20T20:19:08.507Z,18.10
2019-04-20T20:27:28.855Z,17.90
2019-04-20T20:30:10.249Z,17.80
2019-04-20T20:32:58.183Z,17.80
2019-04-20T20:35:18.711Z,17.70
2019-04-20T20:37:48.018Z,17.60
2019-04-20T20:40:24.793Z,17.50
2019-04-20T20:48:54.315Z,17.40
2019-04-20T20:51:44.250Z,17.40
2019-04-20T20:54:04.515Z,17.40
2019-04-20T20:56:30.938Z,17.50
2019-04-20T20:59:04.128Z,17.50
2019-04-20T21:01:39.211Z,17.60
2019-04-20T21:04:17.929Z,17.60
2019-04-20T21:06:51.025Z,17.70
2019-04-20T21:09:25.444Z,17.60
2019-04-20T21:12:00.605Z,17.60
2019-04-20T21:14:33.521Z,17.60
2019-04-20T21:17:02.954Z,17.60
2019-04-20T21:20:02.868Z,17.60
2019-04-20T21:25:40.776Z,17.50
2019-04-20T21:27:38.981Z,17.50
2019-04-20T21:28:04.837Z,17.50
2019-04-20T21:30:43.682Z,17.40
2019-04-20T21:33:33.914Z,17.40
2019-04-20T21:36:01.308Z,17.30
2019-04-20T21:38:35.838Z,17.30
2019-04-20T21:41:06.468Z,17.20
2019-04-20T21:44:29.422Z,17.10
2019-04-20T21:47:42.684Z,17.00
2019-04-20T21:48:51.413Z,16.90
2019-04-20T21:57:51.583Z,16.70
2019-04-20T22:07:14.413Z,16.30
2019-04-20T22:09:49.192Z,16.20
2019-04-20T22:12:15.978Z,16.10
2019-04-20T22:14:49.676Z,16.10
